BIENTÔT MET'MAP
version 2.0 !

Prévue avant fin octobre,
la nouvelle version sera
plus belle, plus complète
et hébergée sur un serveur
3 fois plus puissant...
et toujours gratuite !


Pas compatible ?
Essayez la version Mobile !

SE CONNECTER : | S'inscrire | Disclaimer | Découvrir Orbifly |
Code OACI :

TAF - EGPN Dundee Airport - 29 May 2020 17:03 UTC - Data Source NOAA   


- Altitude de l'aérodrome : 17 ft
- Code IATA : DND
- Pas de NOTAMs connus.


EGPN - Dundee Airport

Dernier METAR connu : 2015/08/11 07:50 EGPN 110750Z 24009KT 9999 FEW038 15/12 Q1016
TAF TAF EGPN
Valide du 29 à 15h jusqu'au 30 à 00h UTC


291358Z 2915/2924 08009KT 9999 FEW040

Source NOAA


MET'MAP, la Météo Aéronautique d'un coup d'oeil ! - Copyright ORBIFLY Décembre 2007

Développement & Programmation : Alexandra Zaïnal
Co-Développement : Marc-Olivier Méhu
Soutien technique & logistique : Manuel Goepfert
Conception & Financement : Baudouin d'Aumeries